createdAt,value
2022-12-17T00:01:06.858Z,67.20
2022-12-17T00:03:54.055Z,66.00
2022-12-17T00:06:43.358Z,69.60
2022-12-17T00:09:29.848Z,67.10
2022-12-17T00:12:16.472Z,67.00
2022-12-17T00:15:02.871Z,66.20
2022-12-17T00:17:49.356Z,64.60
2022-12-17T00:20:35.839Z,65.40
2022-12-17T00:23:23.775Z,65.60
2022-12-17T00:26:11.828Z,66.50
2022-12-17T00:28:58.957Z,65.70
2022-12-17T00:31:46.989Z,64.40
2022-12-17T00:34:33.610Z,66.60
2022-12-17T00:37:20.247Z,66.60
2022-12-17T00:40:06.664Z,66.70
2022-12-17T00:43:00.557Z,65.80
2022-12-17T00:45:47.442Z,65.80
2022-12-17T00:48:34.312Z,67.80
2022-12-17T00:51:21.135Z,67.70
2022-12-17T00:54:07.619Z,67.30
2022-12-17T00:56:54.134Z,65.90
2022-12-17T00:59:42.762Z,67.40
2022-12-17T01:02:29.246Z,64.40
2022-12-17T01:05:16.340Z,65.30
2022-12-17T01:08:02.923Z,66.90
2022-12-17T01:10:49.393Z,66.70
2022-12-17T01:13:37.153Z,68.60
2022-12-17T01:16:24.975Z,64.40
2022-12-17T01:19:12.388Z,65.70
2022-12-17T01:21:58.821Z,63.50
2022-12-17T01:24:45.427Z,66.30
2022-12-17T01:27:32.095Z,65.20
2022-12-17T01:30:18.465Z,64.30
2022-12-17T01:33:04.873Z,64.50
2022-12-17T01:35:52.428Z,64.10
2022-12-17T01:38:38.889Z,63.00
2022-12-17T01:41:25.438Z,62.70
2022-12-17T01:44:12.004Z,61.00
2022-12-17T01:47:00.946Z,60.70
2022-12-17T01:49:47.512Z,62.90
2022-12-17T01:52:35.187Z,63.50
2022-12-17T01:55:23.208Z,62.00
2022-12-17T01:58:09.751Z,62.80
2022-12-17T02:00:56.204Z,65.40
2022-12-17T02:03:42.520Z,64.20
2022-12-17T02:06:46.319Z,66.30
2022-12-17T02:10:05.443Z,66.80
2022-12-17T02:13:06.464Z,66.50
2022-12-17T02:16:01.158Z,64.80
2022-12-17T02:18:55.005Z,62.40
2022-12-17T02:21:44.832Z,63.60
2022-12-17T02:24:51.862Z,62.00
2022-12-17T02:27:40.917Z,62.70
2022-12-17T02:30:28.966Z,62.30
2022-12-17T02:33:15.297Z,60.30
2022-12-17T02:36:08.505Z,60.10
2022-12-17T02:38:56.701Z,61.50
2022-12-17T02:41:48.140Z,61.00
2022-12-17T02:44:37.406Z,61.80
2022-12-17T02:47:27.336Z,61.80
2022-12-17T02:50:13.893Z,62.40
2022-12-17T02:53:04.440Z,62.30
2022-12-17T02:55:51.623Z,64.40
2022-12-17T02:58:38.141Z,65.20
2022-12-17T03:01:25.296Z,64.40
2022-12-17T03:04:12.033Z,66.50
2022-12-17T03:06:58.536Z,65.80
2022-12-17T03:09:45.843Z,64.60
2022-12-17T03:12:33.070Z,63.10
2022-12-17T03:15:19.635Z,63.10
2022-12-17T03:18:06.444Z,62.10
2022-12-17T03:20:52.978Z,65.30
2022-12-17T03:23:39.684Z,65.20
2022-12-17T03:26:25.931Z,65.80
2022-12-17T03:29:12.500Z,65.80
2022-12-17T03:31:59.123Z,67.60
2022-12-17T03:34:45.298Z,66.00
2022-12-17T03:37:31.959Z,65.30
2022-12-17T03:40:18.584Z,66.90
2022-12-17T03:43:05.107Z,67.50
2022-12-17T03:45:51.757Z,65.70
2022-12-17T03:48:38.315Z,67.00
2022-12-17T03:51:26.540Z,65.40
2022-12-17T03:54:13.167Z,65.60
2022-12-17T03:56:59.726Z,66.10
2022-12-17T03:59:46.207Z,63.70
2022-12-17T04:02:32.980Z,64.50
2022-12-17T04:05:20.527Z,66.60
2022-12-17T04:08:07.248Z,66.20
2022-12-17T04:10:53.907Z,65.80
2022-12-17T04:13:41.454Z,64.40
2022-12-17T04:16:28.566Z,67.40
2022-12-17T04:19:15.020Z,64.70
2022-12-17T04:22:01.599Z,62.20
2022-12-17T04:24:47.933Z,63.90
2022-12-17T04:27:34.392Z,65.40
2022-12-17T04:30:21.050Z,61.10
2022-12-17T04:33:07.527Z,61.20
2022-12-17T04:35:54.054Z,64.60
2022-12-17T04:38:40.584Z,62.90
2022-12-17T04:41:27.147Z,62.30
2022-12-17T04:44:13.793Z,60.70
2022-12-17T04:46:59.984Z,59.50
2022-12-17T04:49:46.441Z,60.50
2022-12-17T04:52:32.999Z,61.90
2022-12-17T04:55:19.573Z,58.30
2022-12-17T04:58:06.161Z,57.40
2022-12-17T05:00:52.698Z,56.50
2022-12-17T05:03:39.914Z,58.20
2022-12-17T05:06:27.394Z,58.10
2022-12-17T05:09:13.923Z,59.50
2022-12-17T05:12:00.523Z,57.70
2022-12-17T05:14:47.027Z,57.00
2022-12-17T05:17:33.671Z,57.80
2022-12-17T05:20:20.089Z,55.60
2022-12-17T05:23:06.512Z,53.80
2022-12-17T05:25:53.156Z,56.10
2022-12-17T05:28:39.546Z,55.60
2022-12-17T05:31:26.036Z,56.70
2022-12-17T05:34:12.560Z,54.60
2022-12-17T05:36:58.897Z,54.70
2022-12-17T05:39:45.382Z,53.70
2022-12-17T05:42:31.940Z,54.50
2022-12-17T05:45:18.397Z,56.00
2022-12-17T05:48:04.885Z,54.10
2022-12-17T05:50:51.584Z,53.40
2022-12-17T05:53:38.461Z,55.40
2022-12-17T05:56:25.521Z,54.00
2022-12-17T05:59:12.128Z,53.80
2022-12-17T06:01:58.548Z,53.70
2022-12-17T06:04:44.963Z,53.40
2022-12-17T06:07:31.345Z,53.40
2022-12-17T06:10:17.864Z,55.50
2022-12-17T06:13:14.160Z,55.70
2022-12-17T06:16:00.726Z,54.60
2022-12-17T06:18:47.332Z,54.80
2022-12-17T06:21:33.915Z,56.10
2022-12-17T06:24:20.438Z,53.30
2022-12-17T06:27:07.071Z,53.40
2022-12-17T06:29:53.770Z,53.00
2022-12-17T06:32:40.275Z,53.10
2022-12-17T06:35:27.435Z,53.30
2022-12-17T06:38:18.619Z,51.30
2022-12-17T06:41:05.231Z,52.40
2022-12-17T06:43:51.721Z,51.90
2022-12-17T06:46:38.410Z,50.90
2022-12-17T06:49:24.896Z,48.90
2022-12-17T06:52:11.649Z,50.50
2022-12-17T06:54:58.441Z,51.50
2022-12-17T06:57:50.050Z,51.30
2022-12-17T07:00:37.112Z,53.30
2022-12-17T07:03:23.775Z,52.30
2022-12-17T07:06:10.133Z,53.60
2022-12-17T07:08:56.618Z,51.10
2022-12-17T07:11:43.690Z,50.00
2022-12-17T07:14:30.264Z,49.10
2022-12-17T07:17:16.762Z,51.50
2022-12-17T07:20:03.384Z,51.00
2022-12-17T07:22:54.200Z,49.00
2022-12-17T07:25:45.822Z,48.40
2022-12-17T07:28:33.207Z,49.50
2022-12-17T07:31:19.792Z,48.80
2022-12-17T07:34:06.351Z,49.40
2022-12-17T07:36:52.928Z,49.10
2022-12-17T07:39:39.437Z,49.50
2022-12-17T07:42:25.901Z,48.60
2022-12-17T07:45:12.492Z,50.00
2022-12-17T07:47:58.986Z,52.60
2022-12-17T07:50:45.430Z,52.30
2022-12-17T07:53:31.917Z,51.40
2022-12-17T07:56:18.399Z,56.70
2022-12-17T07:59:04.906Z,53.40
2022-12-17T08:01:51.615Z,53.60
2022-12-17T08:04:38.224Z,55.00
2022-12-17T08:07:24.684Z,53.60
2022-12-17T08:10:11.203Z,50.90
2022-12-17T08:12:57.719Z,54.30
2022-12-17T08:15:44.210Z,54.00
2022-12-17T08:18:30.880Z,54.60
2022-12-17T08:21:17.422Z,54.00
2022-12-17T08:24:03.989Z,57.10
2022-12-17T08:26:50.652Z,55.60
2022-12-17T08:29:37.100Z,55.60
2022-12-17T08:32:23.636Z,58.60
2022-12-17T08:35:10.252Z,57.40
2022-12-17T08:37:56.792Z,58.70
2022-12-17T08:40:43.488Z,55.00
2022-12-17T08:43:30.092Z,58.70
2022-12-17T08:46:16.531Z,54.50
2022-12-17T08:49:02.997Z,56.20
2022-12-17T08:51:49.701Z,50.50
2022-12-17T08:54:36.194Z,53.20
2022-12-17T08:57:31.096Z,51.60
2022-12-17T09:00:18.643Z,53.00
2022-12-17T09:03:18.737Z,53.20
2022-12-17T09:06:05.100Z,53.00
2022-12-17T09:08:51.615Z,56.10
2022-12-17T09:11:38.288Z,55.90
2022-12-17T09:14:24.863Z,55.30
2022-12-17T09:17:11.519Z,56.80
2022-12-17T09:19:58.010Z,54.10
2022-12-17T09:22:44.496Z,56.10
2022-12-17T09:25:31.042Z,55.40
2022-12-17T09:28:21.809Z,55.30
2022-12-17T09:31:08.544Z,54.10
2022-12-17T09:33:55.184Z,53.90
2022-12-17T09:36:44.280Z,57.30
2022-12-17T09:39:34.564Z,62.10
2022-12-17T09:42:30.573Z,58.10
2022-12-17T09:45:26.235Z,71.30
2022-12-17T09:48:30.884Z,61.30
2022-12-17T09:51:18.925Z,54.80
2022-12-17T09:54:08.531Z,52.20
2022-12-17T09:56:57.296Z,54.80
2022-12-17T09:59:47.559Z,50.80
2022-12-17T10:02:40.877Z,48.90
2022-12-17T10:05:33.103Z,51.70
2022-12-17T10:08:19.598Z,54.00
2022-12-17T10:11:06.064Z,55.10
2022-12-17T10:13:52.719Z,54.80
2022-12-17T10:16:39.264Z,54.70
2022-12-17T10:19:32.175Z,56.00
2022-12-17T10:22:33.319Z,55.80
2022-12-17T10:25:37.268Z,53.60
2022-12-17T10:28:25.277Z,53.80
2022-12-17T10:31:11.857Z,51.20
2022-12-17T10:33:59.620Z,51.10
2022-12-17T10:36:47.390Z,50.30
2022-12-17T10:39:42.767Z,52.50
2022-12-17T10:42:56.021Z,54.00
2022-12-17T10:45:48.141Z,50.30
2022-12-17T10:48:43.962Z,48.80
2022-12-17T10:51:38.297Z,52.10
2022-12-17T10:54:49.974Z,50.80
2022-12-17T10:57:42.942Z,51.80
2022-12-17T11:01:05.964Z,56.30
2022-12-17T11:03:58.109Z,55.40
2022-12-17T11:06:50.444Z,57.70
2022-12-17T11:09:50.675Z,55.50
2022-12-17T11:12:39.194Z,54.80
2022-12-17T11:15:49.304Z,53.80
2022-12-17T11:18:39.611Z,53.80
2022-12-17T11:21:38.872Z,55.70
2022-12-17T11:24:31.057Z,53.80
2022-12-17T11:27:18.192Z,55.10
2022-12-17T11:30:04.888Z,53.70
2022-12-17T11:33:10.432Z,51.40
2022-12-17T11:36:07.106Z,49.10
2022-12-17T11:39:17.211Z,54.70
2022-12-17T11:42:22.511Z,52.80
2022-12-17T11:45:23.924Z,57.90
2022-12-17T11:48:25.392Z,63.10
2022-12-17T11:51:45.149Z,52.30
2022-12-17T11:54:41.324Z,55.20
2022-12-17T11:57:40.581Z,66.80
2022-12-17T12:00:36.462Z,56.50
2022-12-17T12:04:05.852Z,58.60
2022-12-17T12:07:08.229Z,56.50
2022-12-17T12:10:12.262Z,60.00
2022-12-17T12:13:26.698Z,54.30
2022-12-17T12:16:45.144Z,56.90
2022-12-17T12:19:41.341Z,57.50
2022-12-17T12:22:54.201Z,58.50
2022-12-17T12:25:47.351Z,58.60
2022-12-17T12:28:45.356Z,67.20
2022-12-17T12:31:52.846Z,58.30
2022-12-17T12:34:46.557Z,56.70
2022-12-17T12:37:35.861Z,58.50
2022-12-17T12:40:38.418Z,63.00
2022-12-17T12:43:32.517Z,63.40
2022-12-17T12:46:32.351Z,62.40
2022-12-17T12:49:44.915Z,59.30
2022-12-17T12:52:37.621Z,64.00
2022-12-17T12:55:24.209Z,57.00
2022-12-17T12:58:21.004Z,55.40
2022-12-17T13:01:07.806Z,53.10
2022-12-17T13:04:03.799Z,57.70
2022-12-17T13:06:43.689Z,56.00
2022-12-17T13:09:18.046Z,56.80
2022-12-17T13:11:48.374Z,56.30
2022-12-17T13:14:20.737Z,54.80
2022-12-17T13:16:48.541Z,51.80
2022-12-17T13:19:32.376Z,53.30
2022-12-17T13:22:28.669Z,53.60
2022-12-17T13:25:17.495Z,76.00
2022-12-17T13:27:45.789Z,54.80
2022-12-17T13:30:29.454Z,80.80
2022-12-17T13:33:05.466Z,82.00
2022-12-17T13:35:39.156Z,97.10
2022-12-17T13:38:38.736Z,64.10
2022-12-17T13:41:13.115Z,57.70
2022-12-17T13:43:47.278Z,57.40
2022-12-17T13:46:47.081Z,53.80
2022-12-17T13:49:29.054Z,53.00
2022-12-17T13:52:11.461Z,55.70
2022-12-17T13:54:39.933Z,54.20
2022-12-17T13:57:15.618Z,61.90
2022-12-17T13:59:54.685Z,62.10
2022-12-17T14:02:35.156Z,53.70
2022-12-17T14:05:08.091Z,47.40
2022-12-17T14:07:38.841Z,46.90
2022-12-17T14:10:15.486Z,47.20
2022-12-17T14:12:43.939Z,45.40
2022-12-17T14:15:21.067Z,43.80
2022-12-17T14:17:49.566Z,46.20
2022-12-17T14:20:21.212Z,49.40
2022-12-17T14:22:54.471Z,48.70
2022-12-17T14:25:39.669Z,71.60
2022-12-17T14:28:32.514Z,73.00
2022-12-17T14:34:08.262Z,52.00
2022-12-17T14:36:39.011Z,52.20
2022-12-17T14:39:17.832Z,54.20
2022-12-17T14:42:04.436Z,50.20
2022-12-17T14:44:32.500Z,49.10
2022-12-17T14:47:12.772Z,48.10
2022-12-17T14:49:56.478Z,46.90
2022-12-17T14:52:42.958Z,47.70
2022-12-17T14:55:23.107Z,45.60
2022-12-17T14:57:52.379Z,48.70
2022-12-17T15:00:21.278Z,45.30
2022-12-17T15:02:52.968Z,45.70
2022-12-17T15:05:21.330Z,47.80
2022-12-17T15:07:49.204Z,47.00
2022-12-17T15:10:20.739Z,50.10
2022-12-17T15:12:51.493Z,46.90
2022-12-17T15:15:21.595Z,46.30
2022-12-17T15:17:49.591Z,50.00
2022-12-17T15:20:20.299Z,49.30
2022-12-17T15:22:48.516Z,45.20
2022-12-17T15:25:18.451Z,49.80
2022-12-17T15:27:46.785Z,65.70
2022-12-17T15:30:17.899Z,55.10
2022-12-17T15:32:46.233Z,53.90
2022-12-17T15:35:14.988Z,47.30
2022-12-17T15:37:42.767Z,46.70
2022-12-17T15:40:12.164Z,45.20
2022-12-17T15:43:04.455Z,47.40
2022-12-17T15:45:34.106Z,45.40
2022-12-17T15:48:02.111Z,48.30
2022-12-17T15:50:30.176Z,47.10
2022-12-17T15:52:58.213Z,49.80
2022-12-17T15:55:26.097Z,45.20
2022-12-17T15:57:54.156Z,44.30
2022-12-17T16:00:22.293Z,45.30
2022-12-17T16:02:50.968Z,45.10
2022-12-17T16:05:19.588Z,43.30
2022-12-17T16:07:49.982Z,49.00
2022-12-17T16:10:18.029Z,44.50
2022-12-17T16:12:45.824Z,40.40
2022-12-17T16:15:13.757Z,47.70
2022-12-17T16:17:41.987Z,39.60
2022-12-17T16:20:10.574Z,44.80
2022-12-17T16:22:38.423Z,42.80
2022-12-17T16:25:07.009Z,51.00
2022-12-17T16:27:34.718Z,41.40
2022-12-17T16:30:03.698Z,47.00
2022-12-17T16:32:36.080Z,48.30
2022-12-17T16:35:05.246Z,54.40
2022-12-17T16:37:32.973Z,94.20
2022-12-17T16:40:00.942Z,64.80
2022-12-17T16:42:29.064Z,54.30
2022-12-17T16:44:56.736Z,40.10
2022-12-17T16:47:24.955Z,45.50
2022-12-17T16:49:52.706Z,45.30
2022-12-17T16:52:20.633Z,42.00
2022-12-17T16:54:48.537Z,47.90
2022-12-17T16:57:16.164Z,44.60
2022-12-17T16:59:43.859Z,42.60
2022-12-17T17:02:15.601Z,41.50
2022-12-17T17:04:43.577Z,65.60
2022-12-17T17:07:11.477Z,77.50
2022-12-17T17:09:39.455Z,57.50
2022-12-17T17:12:09.038Z,41.80
2022-12-17T17:14:37.237Z,73.10
2022-12-17T17:17:05.085Z,83.40
2022-12-17T17:19:32.841Z,56.40
2022-12-17T17:22:00.499Z,65.00
2022-12-17T17:24:28.226Z,51.30
2022-12-17T17:26:55.974Z,39.80
2022-12-17T17:29:23.888Z,48.30
2022-12-17T17:34:40.008Z,44.90
2022-12-17T17:37:07.938Z,45.60
2022-12-17T17:39:35.799Z,61.10
2022-12-17T17:42:03.655Z,69.10
2022-12-17T17:44:31.827Z,68.30
2022-12-17T17:46:59.987Z,64.50
2022-12-17T17:49:27.930Z,63.80
2022-12-17T17:52:12.077Z,52.80
2022-12-17T17:54:40.167Z,69.40
2022-12-17T17:57:09.131Z,57.10
2022-12-17T17:59:37.726Z,73.10
2022-12-17T18:02:05.724Z,69.10
2022-12-17T18:04:33.529Z,71.20
2022-12-17T18:07:25.187Z,108.20
2022-12-17T18:09:49.159Z,105.00
2022-12-17T18:12:36.116Z,154.90
2022-12-17T18:15:14.214Z,126.10
2022-12-17T18:17:44.869Z,79.60
2022-12-17T18:20:13.352Z,112.60
2022-12-17T18:22:41.167Z,107.10
2022-12-17T18:25:08.849Z,75.80
2022-12-17T18:27:36.752Z,48.20
2022-12-17T18:30:05.133Z,50.10
2022-12-17T18:32:33.012Z,72.30
2022-12-17T18:35:00.936Z,69.00
2022-12-17T18:37:28.709Z,57.80
2022-12-17T18:39:56.647Z,49.70
2022-12-17T18:42:43.252Z,56.40
2022-12-17T18:45:10.981Z,44.40
2022-12-17T18:47:38.727Z,36.10
2022-12-17T18:50:06.884Z,38.20
2022-12-17T18:52:34.766Z,38.30
2022-12-17T18:55:02.582Z,43.40
2022-12-17T18:57:30.356Z,42.70
2022-12-17T18:59:58.171Z,46.40
2022-12-17T19:02:26.036Z,38.20
2022-12-17T19:04:54.058Z,37.50
2022-12-17T19:07:22.000Z,48.90
2022-12-17T19:09:50.048Z,45.30
2022-12-17T19:12:17.768Z,57.00
2022-12-17T19:14:45.521Z,42.60
2022-12-17T19:17:13.233Z,62.80
2022-12-17T19:19:40.960Z,52.80
2022-12-17T19:22:08.635Z,54.60
2022-12-17T19:24:36.367Z,57.20
2022-12-17T19:27:04.400Z,67.90
2022-12-17T19:29:32.297Z,76.20
2022-12-17T19:32:00.569Z,70.50
2022-12-17T19:34:28.480Z,61.10
2022-12-17T19:36:56.334Z,68.00
2022-12-17T19:39:24.144Z,50.40
2022-12-17T19:41:51.981Z,58.60
2022-12-17T19:44:20.988Z,53.90
2022-12-17T19:46:48.733Z,59.50
2022-12-17T19:49:17.149Z,53.00
2022-12-17T19:51:45.344Z,44.40
2022-12-17T19:54:15.277Z,50.00
2022-12-17T19:56:44.440Z,75.50
2022-12-17T19:59:12.907Z,42.90
2022-12-17T20:01:43.996Z,51.30
2022-12-17T20:04:14.048Z,53.50
2022-12-17T20:06:42.896Z,46.20
2022-12-17T20:09:10.707Z,61.40
2022-12-17T20:11:38.707Z,120.80
2022-12-17T20:14:12.279Z,50.50
2022-12-17T20:16:43.082Z,49.10
2022-12-17T20:19:14.042Z,60.00
2022-12-17T20:21:42.404Z,44.90
2022-12-17T20:24:10.971Z,43.00
2022-12-17T20:26:39.263Z,42.90
2022-12-17T20:29:08.061Z,46.30
2022-12-17T20:31:36.981Z,42.30
2022-12-17T20:34:07.260Z,38.30
2022-12-17T20:36:36.030Z,38.70
2022-12-17T20:39:04.555Z,47.40
2022-12-17T20:41:33.074Z,41.80
2022-12-17T20:44:04.188Z,54.80
2022-12-17T20:46:32.211Z,38.40
2022-12-17T20:49:01.291Z,56.40
2022-12-17T20:51:30.135Z,46.70
2022-12-17T20:54:00.115Z,31.90
2022-12-17T20:56:30.343Z,36.70
2022-12-17T20:59:02.262Z,45.60
2022-12-17T21:01:31.997Z,35.80
2022-12-17T21:04:01.596Z,48.60
2022-12-17T21:06:45.483Z,37.70
2022-12-17T21:09:16.272Z,28.40
2022-12-17T21:11:44.113Z,35.80
2022-12-17T21:14:14.569Z,30.90
2022-12-17T21:16:43.120Z,27.40
2022-12-17T21:19:17.454Z,29.50
2022-12-17T21:21:45.481Z,38.30
2022-12-17T21:24:13.220Z,45.20
2022-12-17T21:26:43.037Z,34.70
2022-12-17T21:29:11.898Z,34.00
2022-12-17T21:31:48.466Z,34.90
2022-12-17T21:34:22.896Z,37.20
2022-12-17T21:36:51.757Z,37.30
2022-12-17T21:39:20.375Z,38.40
2022-12-17T21:42:08.543Z,40.70
2022-12-17T21:44:37.011Z,40.10
2022-12-17T21:47:04.827Z,40.20
2022-12-17T21:49:32.597Z,39.90
2022-12-17T21:52:01.744Z,38.60
2022-12-17T21:54:29.507Z,37.20
2022-12-17T21:56:57.186Z,34.80
2022-12-17T21:59:24.910Z,34.20
2022-12-17T22:01:52.785Z,37.20
2022-12-17T22:04:21.016Z,38.40
2022-12-17T22:06:53.769Z,36.70
2022-12-17T22:09:59.732Z,45.20
2022-12-17T22:12:40.515Z,43.70
2022-12-17T22:15:11.227Z,42.80
2022-12-17T22:17:41.171Z,42.90
2022-12-17T22:20:10.028Z,41.20
2022-12-17T22:22:37.795Z,41.90
2022-12-17T22:25:10.252Z,42.70
2022-12-17T22:27:41.038Z,40.00
2022-12-17T22:30:32.635Z,43.20
2022-12-17T22:33:05.680Z,42.70
2022-12-17T22:37:41.691Z,44.50
2022-12-17T22:43:58.550Z,43.00
2022-12-17T22:44:44.343Z,44.90
2022-12-17T22:44:49.498Z,43.10
2022-12-17T22:47:15.773Z,42.60
2022-12-17T22:49:44.569Z,45.80
2022-12-17T22:52:12.487Z,41.60
2022-12-17T22:54:40.503Z,44.40
2022-12-17T22:57:33.565Z,42.30
2022-12-17T22:59:56.054Z,43.80
2022-12-17T23:02:24.070Z,38.20
2022-12-17T23:04:51.937Z,40.70
2022-12-17T23:07:19.548Z,41.00
2022-12-17T23:09:47.192Z,39.60
2022-12-17T23:12:33.680Z,38.80
2022-12-17T23:15:01.303Z,40.80
2022-12-17T23:17:28.943Z,42.20
2022-12-17T23:19:56.576Z,42.90
2022-12-17T23:22:24.903Z,43.50
2022-12-17T23:24:52.877Z,43.50
2022-12-17T23:27:20.580Z,44.90
2022-12-17T23:29:48.287Z,44.40
2022-12-17T23:32:16.039Z,45.80
2022-12-17T23:34:43.693Z,45.50
2022-12-17T23:37:11.341Z,45.60
2022-12-17T23:39:39.098Z,47.00
2022-12-17T23:42:07.020Z,47.20
2022-12-17T23:44:34.633Z,49.50
2022-12-17T23:47:02.282Z,47.80
2022-12-17T23:49:29.896Z,46.00
2022-12-17T23:51:57.531Z,48.40
2022-12-17T23:54:25.661Z,46.10
2022-12-17T23:56:53.293Z,47.20
2022-12-17T23:59:20.907Z,47.90
